Valley Center, KS (67147)

4:24 AM CDT on August 30, 2014 (GMT -0500)
Teal Cove | Change Station
CLOSE
Current Station
Personal Weather Station
Location: Wichita, KS
Elevation: 1378 ft
Nearby Weather Stations

Elev 1378 ft 37.76 °N, 97.26 °W | Updated 14 minutes ago

Clear
Clear
67.2 °F
Feels Like 67.2 °F
N
0.0
Wind Variable Wind from SE
Gusts 0.0 mph

Today
High -- | Low -- °F
--% Chance of Precip.
Yesterday
High -- | Low -- °F
Precip. -- in
6:57 AM 8:01 PM
Waxing Crescent, 20% visible
Pressure 29.88 in
Visibility 10.0 miles
Clouds Clear
Dew Point 65 °F
Humidity 93%
Rainfall 0.00 in
Snow Depth Not available.
UV 0 out of 12
Pollen 9.20 out of 12
Air Quality Not available.
Flu Activity Not available.
METAR KAAO 300854Z AUTO 25005KT 10SM CLR 21/19 A2992 RMK AO2 SLP119 T02060189 53001

More Conditions Fewer Conditions

Pressure 29.88 in
Visibility 10.0 miles
Clouds Clear
Dew Point 65 °F
Humidity 93%
Rainfall 0.00 in
Snow Depth Not available.
UV 0 out of 12
Pollen 9.20 out of 12
Air Quality Not available.
Flu Activity Not available.
METAR KAAO 300854Z AUTO 25005KT 10SM CLR 21/19 A2992 RMK AO2 SLP119 T02060189 53001

More Conditions Fewer Conditions

10-Day Weather Forecast

Almanac

Astronomy

Aug. 30, 2014 Rise Set
Actual Time 6:57 AM CDT 8:01 PM CDT
Civil Twilight 6:30 AM CDT 8:28 PM CDT
Nautical Twilight 5:58 AM CDT 9:00 PM CDT
Astronomical Twilight 5:24 AM CDT 9:33 PM CDT
Moon 11:40 AM CDT 10:42 PM CDT
Length of Visible Light 13h 57m
Length of Day
13h 03m
Tomorrow will be 2m 20s shorter.
Waxing Crescent, 20% of the Moon is Illuminated
Today
Waxing Crescent
Sep 2
First Quarter
Sep 8
Full
Sep 15
Last Quarter
Sep 24
New

Today's Extremes

State Highs State Lows

Community

WunderPhotos

Upload Photos

1,748,475 photos uploaded!

Nearby

Snow Depth

Station Depth Elevation
No new snow has been reported.

Earthquake Activity

City Distance Mag. Time & Date
Perry, Oklahoma 114 miles 3.0 4:52 AM CDT
2014-08-29
Perry, Oklahoma 113 miles 3.1 10:01 PM CDT
2014-08-28
Minimum magnitude displayed is 2.5.

Coastal Water Temperatures

Place Temperature
No Stations Reporting

Nearby Weather Stations